createdAt,value
2023-02-27T00:01:33.953Z,2.43
2023-02-27T00:06:36.385Z,2.58
2023-02-27T00:11:38.586Z,2.33
2023-02-27T00:16:40.272Z,2.80
2023-02-27T00:21:44.438Z,2.40
2023-02-27T00:26:46.223Z,2.38
2023-02-27T00:31:47.951Z,2.53
2023-02-27T00:36:49.938Z,2.60
2023-02-27T00:41:51.712Z,2.90
2023-02-27T00:46:53.421Z,3.00
2023-02-27T00:51:55.232Z,3.20
2023-02-27T00:56:58.826Z,2.67
2023-02-27T01:02:00.551Z,2.83
2023-02-27T01:07:03.724Z,2.63
2023-02-27T01:12:05.793Z,3.15
2023-02-27T01:17:07.536Z,2.90
2023-02-27T01:22:09.243Z,3.30
2023-02-27T01:27:11.184Z,3.00
2023-02-27T01:32:12.946Z,3.00
2023-02-27T01:37:14.780Z,3.03
2023-02-27T01:42:24.343Z,3.28
2023-02-27T01:47:26.166Z,3.00
2023-02-27T01:52:31.281Z,2.90
2023-02-27T01:57:32.975Z,3.40
2023-02-27T02:02:38.692Z,3.53
2023-02-27T02:07:41.874Z,2.85
2023-02-27T02:12:45.072Z,3.40
2023-02-27T02:18:00.091Z,3.75
2023-02-27T02:23:39.640Z,3.42
2023-02-27T02:28:59.780Z,3.38
2023-02-27T02:34:25.737Z,3.40
2023-02-27T02:39:37.530Z,3.40
2023-02-27T02:45:00.142Z,3.47
2023-02-27T02:50:23.964Z,3.35
2023-02-27T02:55:40.864Z,3.50
2023-02-27T03:00:48.934Z,3.45
2023-02-27T03:06:12.841Z,3.70
2023-02-27T03:11:14.754Z,3.60
2023-02-27T03:16:29.803Z,3.67
2023-02-27T03:21:38.957Z,3.78
2023-02-27T03:26:44.652Z,3.70
2023-02-27T03:31:56.606Z,3.78
2023-02-27T03:37:21.996Z,3.60
2023-02-27T03:42:39.507Z,3.60
2023-02-27T03:47:44.396Z,4.30
2023-02-27T03:52:46.507Z,3.45
2023-02-27T03:57:51.779Z,3.63
2023-02-27T04:02:56.213Z,4.50
2023-02-27T04:08:19.111Z,3.65
2023-02-27T04:13:26.788Z,3.80
2023-02-27T04:18:56.661Z,3.85
2023-02-27T04:24:13.615Z,4.20
2023-02-27T04:29:18.614Z,3.95
2023-02-27T04:34:40.962Z,4.65
2023-02-27T04:39:53.389Z,4.25
2023-02-27T04:45:00.594Z,4.25
2023-02-27T04:50:19.571Z,4.40
2023-02-27T04:55:30.319Z,4.82
2023-02-27T05:00:34.641Z,4.40
2023-02-27T05:05:38.325Z,4.55
2023-02-27T05:10:46.772Z,4.47
2023-02-27T05:15:58.168Z,4.68
2023-02-27T05:21:12.496Z,4.68
2023-02-27T05:26:24.262Z,4.53
2023-02-27T05:31:34.426Z,4.80
2023-02-27T05:36:57.234Z,4.45
2023-02-27T05:47:12.892Z,4.53
2023-02-27T05:52:18.179Z,4.57
2023-02-27T05:57:29.009Z,5.25
2023-02-27T06:02:30.893Z,4.30
2023-02-27T06:07:33.848Z,4.35
2023-02-27T06:12:35.638Z,4.50
2023-02-27T06:17:37.371Z,4.70
2023-02-27T06:22:39.045Z,4.80
2023-02-27T06:27:40.873Z,4.57
2023-02-27T06:32:42.593Z,4.80
2023-02-27T06:37:44.539Z,4.40
2023-02-27T06:42:46.610Z,4.43
2023-02-27T06:47:48.304Z,4.43
2023-02-27T06:52:50.110Z,4.67
2023-02-27T06:57:51.781Z,4.88
2023-02-27T07:02:53.582Z,5.13
2023-02-27T07:07:56.632Z,5.20
2023-02-27T07:13:00.344Z,5.10
2023-02-27T07:18:02.663Z,4.50
2023-02-27T07:23:04.814Z,4.60
2023-02-27T07:28:06.777Z,4.28
2023-02-27T07:33:08.818Z,4.30
2023-02-27T07:38:10.634Z,4.70
2023-02-27T07:43:12.685Z,4.20
2023-02-27T07:48:14.393Z,4.00
2023-02-27T07:53:16.178Z,4.30
2023-02-27T07:58:18.187Z,4.23
2023-02-27T08:03:19.871Z,3.55
2023-02-27T08:08:21.920Z,3.67
2023-02-27T08:13:35.947Z,3.45
2023-02-27T08:18:45.246Z,3.65
2023-02-27T08:23:46.948Z,3.30
2023-02-27T08:28:48.993Z,3.38
2023-02-27T08:33:58.035Z,3.17
2023-02-27T08:39:09.520Z,3.25
2023-02-27T08:44:12.908Z,3.47
2023-02-27T08:49:14.949Z,3.03
2023-02-27T08:54:16.964Z,3.53
2023-02-27T08:59:18.820Z,3.65
2023-02-27T09:04:21.017Z,3.20
2023-02-27T09:09:23.764Z,3.20
2023-02-27T09:14:25.811Z,3.58
2023-02-27T09:19:27.619Z,3.40
2023-02-27T09:24:29.500Z,3.13
2023-02-27T09:29:31.285Z,3.80
2023-02-27T09:34:33.364Z,3.63
2023-02-27T09:39:36.250Z,4.28
2023-02-27T09:50:28.530Z,3.17
2023-02-27T09:55:34.974Z,2.80
2023-02-27T10:00:53.726Z,2.70
2023-02-27T10:06:21.384Z,3.15
2023-02-27T10:11:56.810Z,2.92
2023-02-27T10:17:03.788Z,3.10
2023-02-27T10:22:12.695Z,2.72
2023-02-27T10:27:19.281Z,2.80
2023-02-27T10:32:26.838Z,2.92
2023-02-27T10:37:30.362Z,2.80
2023-02-27T10:42:36.284Z,2.75
2023-02-27T10:47:39.683Z,3.03
2023-02-27T10:53:02.078Z,2.50
2023-02-27T10:58:05.006Z,2.47
2023-02-27T11:03:16.829Z,2.70
2023-02-27T11:08:27.362Z,2.88
2023-02-27T11:13:32.242Z,2.58
2023-02-27T11:18:36.049Z,2.85
2023-02-27T11:23:38.426Z,2.72
2023-02-27T11:28:40.277Z,2.33
2023-02-27T11:33:50.774Z,2.67
2023-02-27T11:38:55.133Z,2.40
2023-02-27T11:43:58.105Z,2.53
2023-02-27T11:49:16.696Z,2.50
2023-02-27T11:54:34.672Z,2.47
2023-02-27T11:59:58.320Z,2.55
2023-02-27T12:05:14.361Z,2.20
2023-02-27T12:10:20.579Z,2.67
2023-02-27T12:15:29.453Z,2.60
2023-02-27T12:20:57.568Z,3.50
2023-02-27T12:26:32.938Z,2.40
2023-02-27T12:31:34.707Z,2.35
2023-02-27T12:36:36.644Z,2.40
2023-02-27T12:41:50.463Z,2.57
2023-02-27T12:47:24.496Z,2.60
2023-02-27T12:52:47.938Z,2.50
2023-02-27T12:58:06.991Z,2.50
2023-02-27T13:03:27.731Z,2.33
2023-02-27T13:08:54.286Z,2.72
2023-02-27T13:14:04.022Z,2.60
2023-02-27T13:19:15.254Z,4.63
2023-02-27T13:24:26.197Z,2.50
2023-02-27T13:29:41.254Z,2.60
2023-02-27T13:34:52.355Z,2.88
2023-02-27T13:40:01.189Z,2.90
2023-02-27T13:45:06.619Z,2.50
2023-02-27T13:50:17.081Z,2.70
2023-02-27T13:55:39.993Z,2.85
2023-02-27T14:00:41.707Z,2.85
2023-02-27T14:11:09.353Z,2.80
2023-02-27T14:16:39.760Z,2.50
2023-02-27T14:21:56.520Z,2.72
2023-02-27T14:26:59.556Z,2.83
2023-02-27T14:32:08.875Z,2.60
2023-02-27T14:37:17.148Z,3.40
2023-02-27T14:42:50.035Z,3.20
2023-02-27T14:47:53.010Z,3.13
2023-02-27T14:52:55.471Z,3.35
2023-02-27T14:58:16.080Z,3.10
2023-02-27T15:03:24.216Z,2.90
2023-02-27T15:08:32.732Z,3.08
2023-02-27T15:13:38.155Z,2.60
2023-02-27T15:18:40.664Z,2.88
2023-02-27T15:23:42.503Z,3.40
2023-02-27T15:28:44.376Z,2.80
2023-02-27T15:33:46.374Z,4.13
2023-02-27T15:39:17.257Z,3.30
2023-02-27T15:44:26.239Z,3.20
2023-02-27T15:49:28.040Z,3.03
2023-02-27T15:54:35.152Z,3.23
2023-02-27T15:59:41.927Z,3.00
2023-02-27T16:04:45.745Z,3.20
2023-02-27T16:09:54.517Z,3.05
2023-02-27T16:15:18.057Z,3.50
2023-02-27T16:20:47.612Z,3.13
2023-02-27T16:26:06.383Z,3.05
2023-02-27T16:31:23.511Z,3.25
2023-02-27T16:36:28.602Z,3.28
2023-02-27T16:41:30.438Z,3.40
2023-02-27T16:46:32.150Z,3.60
2023-02-27T16:51:34.810Z,3.78
2023-02-27T17:01:40.697Z,3.35
2023-02-27T17:06:42.352Z,3.10
2023-02-27T17:11:44.092Z,3.00
2023-02-27T17:16:47.356Z,3.10
2023-02-27T17:21:50.484Z,3.22
2023-02-27T17:26:52.626Z,3.20
2023-02-27T17:31:54.765Z,3.05
2023-02-27T17:36:56.483Z,3.20
2023-02-27T17:41:58.155Z,3.10
2023-02-27T17:46:59.841Z,3.00
2023-02-27T17:52:01.674Z,3.40
2023-02-27T17:57:04.871Z,3.57
2023-02-27T18:02:07.913Z,3.20
2023-02-27T18:07:09.674Z,2.47
2023-02-27T18:12:11.420Z,3.03
2023-02-27T18:17:13.212Z,3.15
2023-02-27T18:22:17.984Z,3.23
2023-02-27T18:27:20.236Z,2.97
2023-02-27T18:32:21.979Z,3.50
2023-02-27T18:37:23.746Z,3.03
2023-02-27T18:42:25.472Z,2.90
2023-02-27T18:47:30.264Z,3.20
2023-02-27T18:52:33.224Z,3.00
2023-02-27T18:57:36.480Z,2.97
2023-02-27T19:02:41.743Z,2.90
2023-02-27T19:07:44.000Z,2.50
2023-02-27T19:12:49.754Z,2.70
2023-02-27T19:17:51.450Z,2.80
2023-02-27T19:22:53.646Z,2.80
2023-02-27T19:27:56.952Z,2.85
2023-02-27T19:32:58.757Z,3.10
2023-02-27T19:38:00.422Z,3.33
2023-02-27T19:43:02.263Z,3.75
2023-02-27T19:48:04.171Z,3.73
2023-02-27T19:53:05.883Z,3.50
2023-02-27T19:58:08.032Z,3.73
2023-02-27T20:03:09.942Z,3.53
2023-02-27T20:08:12.084Z,3.45
2023-02-27T20:13:13.904Z,3.78
2023-02-27T20:18:15.572Z,3.37
2023-02-27T20:23:17.740Z,3.27
2023-02-27T20:28:19.842Z,3.00
2023-02-27T20:33:21.521Z,3.45
2023-02-27T20:38:23.282Z,3.13
2023-02-27T20:43:25.052Z,3.20
2023-02-27T20:48:26.738Z,3.33
2023-02-27T20:53:28.445Z,3.10
2023-02-27T20:58:30.603Z,3.20
2023-02-27T21:03:38.634Z,3.30
2023-02-27T21:08:46.733Z,3.08
2023-02-27T21:13:50.015Z,3.20
2023-02-27T21:18:53.572Z,3.42
2023-02-27T21:23:55.915Z,3.40
2023-02-27T21:29:00.787Z,3.22
2023-02-27T21:34:05.606Z,3.25
2023-02-27T21:39:07.807Z,3.17
2023-02-27T21:44:13.237Z,3.55
2023-02-27T21:49:17.614Z,3.05
2023-02-27T21:54:20.408Z,3.20
2023-02-27T21:59:22.188Z,3.30
2023-02-27T22:04:24.394Z,3.17
2023-02-27T22:09:26.093Z,3.45
2023-02-27T22:14:27.979Z,3.60
2023-02-27T22:19:29.639Z,3.77
2023-02-27T22:24:31.608Z,3.57
2023-02-27T22:29:33.290Z,3.57
2023-02-27T22:34:35.054Z,3.40
2023-02-27T22:39:36.859Z,3.63
2023-02-27T22:44:38.534Z,3.50
2023-02-27T22:49:40.248Z,3.50
2023-02-27T22:54:42.017Z,3.97
2023-02-27T22:59:43.689Z,4.10
2023-02-27T23:04:45.379Z,3.73
2023-02-27T23:09:47.082Z,4.00
2023-02-27T23:14:48.781Z,3.58
2023-02-27T23:19:50.438Z,3.90
2023-02-27T23:24:52.290Z,3.90
2023-02-27T23:29:54.197Z,3.90
2023-02-27T23:34:55.974Z,3.70
2023-02-27T23:39:58.040Z,4.13
2023-02-27T23:45:22.713Z,4.03
2023-02-27T23:50:27.875Z,4.10
2023-02-27T23:55:32.400Z,3.92
